sensor_id;sensor_type;location;lat;lon;timestamp;P1;durP1;ratioP1;P2;durP2;ratioP2
10463;SDS011;5279;42.048;24.638;2023-03-01T00:01:10;7.83;;;4.07;;
10463;SDS011;5279;42.048;24.638;2023-03-01T00:03:39;3.80;;;3.50;;
10463;SDS011;5279;42.048;24.638;2023-03-01T00:06:06;3.93;;;3.70;;
10463;SDS011;5279;42.048;24.638;2023-03-01T00:08:33;3.67;;;3.43;;
10463;SDS011;5279;42.048;24.638;2023-03-01T00:11:01;32.67;;;5.53;;
10463;SDS011;5279;42.048;24.638;2023-03-01T00:13:30;4.07;;;3.77;;
10463;SDS011;5279;42.048;24.638;2023-03-01T00:15:57;4.20;;;3.90;;
10463;SDS011;5279;42.048;24.638;2023-03-01T00:18:25;4.00;;;3.70;;
10463;SDS011;5279;42.048;24.638;2023-03-01T00:20:53;4.37;;;4.07;;
10463;SDS011;5279;42.048;24.638;2023-03-01T00:23:21;4.93;;;4.60;;
10463;SDS011;5279;42.048;24.638;2023-03-01T00:25:49;4.70;;;4.30;;
10463;SDS011;5279;42.048;24.638;2023-03-01T00:28:16;4.40;;;4.10;;
10463;SDS011;5279;42.048;24.638;2023-03-01T00:30:44;5.17;;;4.77;;
10463;SDS011;5279;42.048;24.638;2023-03-01T00:33:10;5.20;;;4.90;;
10463;SDS011;5279;42.048;24.638;2023-03-01T00:35:39;5.20;;;4.80;;
10463;SDS011;5279;42.048;24.638;2023-03-01T00:38:06;5.13;;;4.73;;
10463;SDS011;5279;42.048;24.638;2023-03-01T00:40:34;5.10;;;4.70;;
10463;SDS011;5279;42.048;24.638;2023-03-01T00:43:04;5.47;;;4.97;;
10463;SDS011;5279;42.048;24.638;2023-03-01T00:45:32;6.23;;;5.63;;
10463;SDS011;5279;42.048;24.638;2023-03-01T00:47:59;6.10;;;5.63;;
10463;SDS011;5279;42.048;24.638;2023-03-01T00:50:27;6.00;;;5.60;;
10463;SDS011;5279;42.048;24.638;2023-03-01T00:52:56;6.30;;;5.80;;
10463;SDS011;5279;42.048;24.638;2023-03-01T00:55:23;5.87;;;5.47;;
10463;SDS011;5279;42.048;24.638;2023-03-01T00:57:50;6.30;;;5.73;;
10463;SDS011;5279;42.048;24.638;2023-03-01T01:00:17;17.57;;;6.47;;
10463;SDS011;5279;42.048;24.638;2023-03-01T01:02:45;82.27;;;9.53;;
10463;SDS011;5279;42.048;24.638;2023-03-01T01:05:12;6.23;;;5.57;;
10463;SDS011;5279;42.048;24.638;2023-03-01T01:07:39;5.90;;;5.47;;
10463;SDS011;5279;42.048;24.638;2023-03-01T01:10:09;6.30;;;5.80;;
10463;SDS011;5279;42.048;24.638;2023-03-01T01:12:42;6.60;;;6.10;;
10463;SDS011;5279;42.048;24.638;2023-03-01T01:15:09;6.47;;;5.97;;
10463;SDS011;5279;42.048;24.638;2023-03-01T01:17:39;7.17;;;6.57;;
10463;SDS011;5279;42.048;24.638;2023-03-01T01:20:06;6.93;;;6.33;;
10463;SDS011;5279;42.048;24.638;2023-03-01T01:22:34;6.50;;;5.90;;
10463;SDS011;5279;42.048;24.638;2023-03-01T01:25:01;7.23;;;6.63;;
10463;SDS011;5279;42.048;24.638;2023-03-01T01:27:29;7.60;;;6.83;;
10463;SDS011;5279;42.048;24.638;2023-03-01T01:29:56;6.53;;;5.93;;
10463;SDS011;5279;42.048;24.638;2023-03-01T01:32:23;6.87;;;6.10;;
10463;SDS011;5279;42.048;24.638;2023-03-01T01:34:50;7.07;;;6.47;;
10463;SDS011;5279;42.048;24.638;2023-03-01T01:37:17;20.93;;;7.17;;
10463;SDS011;5279;42.048;24.638;2023-03-01T01:39:44;7.17;;;6.57;;
10463;SDS011;5279;42.048;24.638;2023-03-01T01:42:12;7.17;;;6.57;;
10463;SDS011;5279;42.048;24.638;2023-03-01T01:44:44;7.53;;;6.93;;
10463;SDS011;5279;42.048;24.638;2023-03-01T01:47:12;6.53;;;6.03;;
10463;SDS011;5279;42.048;24.638;2023-03-01T01:49:43;7.03;;;6.43;;
10463;SDS011;5279;42.048;24.638;2023-03-01T01:52:13;6.60;;;6.10;;
10463;SDS011;5279;42.048;24.638;2023-03-01T01:54:47;7.10;;;6.50;;
10463;SDS011;5279;42.048;24.638;2023-03-01T01:57:18;6.73;;;6.23;;
10463;SDS011;5279;42.048;24.638;2023-03-01T01:59:50;7.00;;;6.40;;
10463;SDS011;5279;42.048;24.638;2023-03-01T02:02:19;6.63;;;6.13;;
10463;SDS011;5279;42.048;24.638;2023-03-01T02:04:46;6.40;;;5.77;;
10463;SDS011;5279;42.048;24.638;2023-03-01T02:07:15;7.03;;;6.43;;
10463;SDS011;5279;42.048;24.638;2023-03-01T02:09:43;6.90;;;6.40;;
10463;SDS011;5279;42.048;24.638;2023-03-01T02:12:13;6.70;;;6.20;;
10463;SDS011;5279;42.048;24.638;2023-03-01T02:14:42;6.57;;;6.07;;
10463;SDS011;5279;42.048;24.638;2023-03-01T02:17:10;7.30;;;6.70;;
10463;SDS011;5279;42.048;24.638;2023-03-01T02:19:42;8.17;;;6.97;;
10463;SDS011;5279;42.048;24.638;2023-03-01T02:22:20;7.30;;;6.67;;
10463;SDS011;5279;42.048;24.638;2023-03-01T02:24:53;7.73;;;7.07;;
10463;SDS011;5279;42.048;24.638;2023-03-01T02:27:29;7.97;;;7.17;;
10463;SDS011;5279;42.048;24.638;2023-03-01T02:30:04;8.17;;;7.47;;
10463;SDS011;5279;42.048;24.638;2023-03-01T02:32:33;8.90;;;8.10;;
10463;SDS011;5279;42.048;24.638;2023-03-01T02:34:59;8.47;;;7.77;;
10463;SDS011;5279;42.048;24.638;2023-03-01T02:37:26;9.20;;;8.33;;
10463;SDS011;5279;42.048;24.638;2023-03-01T02:39:55;9.33;;;8.40;;
10463;SDS011;5279;42.048;24.638;2023-03-01T02:42:26;9.30;;;8.50;;
10463;SDS011;5279;42.048;24.638;2023-03-01T02:44:57;9.83;;;8.50;;
10463;SDS011;5279;42.048;24.638;2023-03-01T02:47:27;20.30;;;8.77;;
10463;SDS011;5279;42.048;24.638;2023-03-01T02:49:54;8.60;;;7.90;;
10463;SDS011;5279;42.048;24.638;2023-03-01T02:52:27;9.20;;;8.40;;
10463;SDS011;5279;42.048;24.638;2023-03-01T02:55:03;8.33;;;7.63;;
10463;SDS011;5279;42.048;24.638;2023-03-01T02:57:33;8.70;;;8.00;;
10463;SDS011;5279;42.048;24.638;2023-03-01T03:00:03;8.27;;;7.57;;
10463;SDS011;5279;42.048;24.638;2023-03-01T03:02:34;8.70;;;7.90;;
10463;SDS011;5279;42.048;24.638;2023-03-01T03:05:03;8.40;;;7.60;;
10463;SDS011;5279;42.048;24.638;2023-03-01T03:07:33;7.90;;;7.13;;
10463;SDS011;5279;42.048;24.638;2023-03-01T03:10:00;7.33;;;6.63;;
10463;SDS011;5279;42.048;24.638;2023-03-01T03:12:27;7.53;;;6.83;;
10463;SDS011;5279;42.048;24.638;2023-03-01T03:14:54;7.10;;;6.40;;
10463;SDS011;5279;42.048;24.638;2023-03-01T03:17:21;6.53;;;5.90;;
10463;SDS011;5279;42.048;24.638;2023-03-01T03:19:49;6.80;;;6.20;;
10463;SDS011;5279;42.048;24.638;2023-03-01T03:22:19;6.97;;;6.33;;
10463;SDS011;5279;42.048;24.638;2023-03-01T03:24:46;31.80;;;7.67;;
10463;SDS011;5279;42.048;24.638;2023-03-01T03:27:13;9.77;;;6.30;;
10463;SDS011;5279;42.048;24.638;2023-03-01T03:29:40;6.43;;;5.53;;
10463;SDS011;5279;42.048;24.638;2023-03-01T03:32:07;7.07;;;6.47;;
10463;SDS011;5279;42.048;24.638;2023-03-01T03:34:33;6.00;;;5.50;;
10463;SDS011;5279;42.048;24.638;2023-03-01T03:37:02;6.43;;;5.93;;
10463;SDS011;5279;42.048;24.638;2023-03-01T03:39:49;6.70;;;6.10;;
10463;SDS011;5279;42.048;24.638;2023-03-01T03:42:19;6.43;;;5.83;;
10463;SDS011;5279;42.048;24.638;2023-03-01T03:44:46;6.33;;;5.83;;
10463;SDS011;5279;42.048;24.638;2023-03-01T03:47:13;6.33;;;5.83;;
10463;SDS011;5279;42.048;24.638;2023-03-01T03:49:58;13.83;;;6.00;;
10463;SDS011;5279;42.048;24.638;2023-03-01T03:52:27;5.93;;;5.43;;
10463;SDS011;5279;42.048;24.638;2023-03-01T03:54:53;129.50;;;10.13;;
10463;SDS011;5279;42.048;24.638;2023-03-01T03:57:20;10.93;;;6.03;;
10463;SDS011;5279;42.048;24.638;2023-03-01T03:59:47;20.30;;;5.93;;
10463;SDS011;5279;42.048;24.638;2023-03-01T04:02:14;78.30;;;8.00;;
10463;SDS011;5279;42.048;24.638;2023-03-01T04:04:47;6.30;;;5.80;;
10463;SDS011;5279;42.048;24.638;2023-03-01T04:07:14;463.07;;;25.10;;
10463;SDS011;5279;42.048;24.638;2023-03-01T04:09:43;195.93;;;13.23;;
10463;SDS011;5279;42.048;24.638;2023-03-01T04:12:10;6.77;;;6.17;;
10463;SDS011;5279;42.048;24.638;2023-03-01T04:14:37;7.43;;;6.73;;
10463;SDS011;5279;42.048;24.638;2023-03-01T04:17:04;7.50;;;6.80;;
10463;SDS011;5279;42.048;24.638;2023-03-01T04:19:31;6.43;;;5.93;;
10463;SDS011;5279;42.048;24.638;2023-03-01T04:22:01;7.13;;;6.50;;
10463;SDS011;5279;42.048;24.638;2023-03-01T04:24:34;6.73;;;6.17;;
10463;SDS011;5279;42.048;24.638;2023-03-01T04:27:05;7.27;;;6.13;;
10463;SDS011;5279;42.048;24.638;2023-03-01T04:29:32;6.53;;;6.00;;
10463;SDS011;5279;42.048;24.638;2023-03-01T04:31:59;6.13;;;5.53;;
10463;SDS011;5279;42.048;24.638;2023-03-01T04:34:25;6.00;;;5.50;;
10463;SDS011;5279;42.048;24.638;2023-03-01T04:36:52;9.03;;;5.47;;
10463;SDS011;5279;42.048;24.638;2023-03-01T04:39:19;5.57;;;5.17;;
10463;SDS011;5279;42.048;24.638;2023-03-01T04:41:46;6.10;;;5.60;;
10463;SDS011;5279;42.048;24.638;2023-03-01T04:44:16;5.83;;;5.37;;
10463;SDS011;5279;42.048;24.638;2023-03-01T04:46:44;5.37;;;4.97;;
10463;SDS011;5279;42.048;24.638;2023-03-01T04:49:11;5.57;;;5.17;;
10463;SDS011;5279;42.048;24.638;2023-03-01T04:51:38;5.80;;;5.30;;
10463;SDS011;5279;42.048;24.638;2023-03-01T04:54:05;5.70;;;5.20;;
10463;SDS011;5279;42.048;24.638;2023-03-01T04:56:33;5.77;;;5.27;;
10463;SDS011;5279;42.048;24.638;2023-03-01T04:59:02;6.57;;;5.77;;
10463;SDS011;5279;42.048;24.638;2023-03-01T05:01:32;5.93;;;5.43;;
10463;SDS011;5279;42.048;24.638;2023-03-01T05:04:00;6.47;;;5.87;;
10463;SDS011;5279;42.048;24.638;2023-03-01T05:06:30;7.30;;;5.50;;
10463;SDS011;5279;42.048;24.638;2023-03-01T05:08:58;6.43;;;5.67;;
10463;SDS011;5279;42.048;24.638;2023-03-01T05:11:24;6.23;;;5.73;;
10463;SDS011;5279;42.048;24.638;2023-03-01T05:13:53;5.80;;;5.30;;
10463;SDS011;5279;42.048;24.638;2023-03-01T05:16:20;6.30;;;5.13;;
10463;SDS011;5279;42.048;24.638;2023-03-01T05:18:48;5.87;;;5.37;;
10463;SDS011;5279;42.048;24.638;2023-03-01T05:21:16;7.20;;;5.30;;
10463;SDS011;5279;42.048;24.638;2023-03-01T05:23:44;5.87;;;5.37;;
10463;SDS011;5279;42.048;24.638;2023-03-01T05:26:11;6.07;;;5.53;;
10463;SDS011;5279;42.048;24.638;2023-03-01T05:28:39;5.90;;;5.40;;
10463;SDS011;5279;42.048;24.638;2023-03-01T05:31:06;6.20;;;5.60;;
10463;SDS011;5279;42.048;24.638;2023-03-01T05:33:35;12.30;;;10.93;;
10463;SDS011;5279;42.048;24.638;2023-03-01T05:36:03;11.63;;;10.27;;
10463;SDS011;5279;42.048;24.638;2023-03-01T05:38:32;6.63;;;5.80;;
10463;SDS011;5279;42.048;24.638;2023-03-01T05:40:59;6.03;;;5.53;;
10463;SDS011;5279;42.048;24.638;2023-03-01T05:46:29;5.47;;;5.07;;
10463;SDS011;5279;42.048;24.638;2023-03-01T05:48:56;6.07;;;5.57;;
10463;SDS011;5279;42.048;24.638;2023-03-01T05:51:24;6.00;;;5.47;;
10463;SDS011;5279;42.048;24.638;2023-03-01T05:53:51;6.33;;;5.73;;
10463;SDS011;5279;42.048;24.638;2023-03-01T05:56:18;6.47;;;5.87;;
10463;SDS011;5279;42.048;24.638;2023-03-01T05:58:47;6.23;;;5.63;;
10463;SDS011;5279;42.048;24.638;2023-03-01T06:01:14;14.87;;;6.30;;
10463;SDS011;5279;42.048;24.638;2023-03-01T06:03:41;6.50;;;5.90;;
10463;SDS011;5279;42.048;24.638;2023-03-01T06:06:09;5.87;;;5.37;;
10463;SDS011;5279;42.048;24.638;2023-03-01T06:08:38;6.23;;;5.73;;
10463;SDS011;5279;42.048;24.638;2023-03-01T06:11:04;6.00;;;5.40;;
10463;SDS011;5279;42.048;24.638;2023-03-01T06:13:32;5.93;;;5.43;;
10463;SDS011;5279;42.048;24.638;2023-03-01T06:15:59;5.80;;;5.30;;
10463;SDS011;5279;42.048;24.638;2023-03-01T06:18:26;6.17;;;5.57;;
10463;SDS011;5279;42.048;24.638;2023-03-01T06:20:53;5.90;;;5.40;;
10463;SDS011;5279;42.048;24.638;2023-03-01T06:23:20;6.30;;;5.00;;
10463;SDS011;5279;42.048;24.638;2023-03-01T06:25:48;5.90;;;5.40;;
10463;SDS011;5279;42.048;24.638;2023-03-01T06:28:15;6.37;;;5.80;;
10463;SDS011;5279;42.048;24.638;2023-03-01T06:30:42;5.87;;;5.37;;
10463;SDS011;5279;42.048;24.638;2023-03-01T06:33:09;5.70;;;5.20;;
10463;SDS011;5279;42.048;24.638;2023-03-01T06:35:36;7.13;;;6.10;;
10463;SDS011;5279;42.048;24.638;2023-03-01T06:38:03;22.30;;;15.30;;
10463;SDS011;5279;42.048;24.638;2023-03-01T06:40:31;6.97;;;6.27;;
10463;SDS011;5279;42.048;24.638;2023-03-01T06:43:01;6.10;;;5.50;;
10463;SDS011;5279;42.048;24.638;2023-03-01T06:45:28;6.00;;;5.40;;
10463;SDS011;5279;42.048;24.638;2023-03-01T06:48:01;6.73;;;6.07;;
10463;SDS011;5279;42.048;24.638;2023-03-01T06:50:29;7.03;;;5.60;;
10463;SDS011;5279;42.048;24.638;2023-03-01T06:52:56;6.17;;;5.37;;
10463;SDS011;5279;42.048;24.638;2023-03-01T06:55:23;6.00;;;5.50;;
10463;SDS011;5279;42.048;24.638;2023-03-01T06:57:53;5.83;;;5.33;;
10463;SDS011;5279;42.048;24.638;2023-03-01T07:03:10;8.80;;;7.90;;
10463;SDS011;5279;42.048;24.638;2023-03-01T07:05:37;6.87;;;6.27;;
10463;SDS011;5279;42.048;24.638;2023-03-01T07:08:04;6.47;;;5.87;;
10463;SDS011;5279;42.048;24.638;2023-03-01T07:10:31;5.27;;;4.87;;
10463;SDS011;5279;42.048;24.638;2023-03-01T07:13:13;5.10;;;4.70;;
10463;SDS011;5279;42.048;24.638;2023-03-01T07:15:40;4.90;;;4.50;;
10463;SDS011;5279;42.048;24.638;2023-03-01T07:18:09;5.50;;;5.00;;
10463;SDS011;5279;42.048;24.638;2023-03-01T07:20:35;5.10;;;4.70;;
10463;SDS011;5279;42.048;24.638;2023-03-01T07:23:02;4.77;;;4.37;;
10463;SDS011;5279;42.048;24.638;2023-03-01T07:25:31;5.00;;;4.60;;
10463;SDS011;5279;42.048;24.638;2023-03-01T07:27:59;5.30;;;4.90;;
10463;SDS011;5279;42.048;24.638;2023-03-01T07:30:26;5.77;;;5.27;;
10463;SDS011;5279;42.048;24.638;2023-03-01T07:32:53;5.80;;;5.20;;
10463;SDS011;5279;42.048;24.638;2023-03-01T07:35:22;5.80;;;5.30;;
10463;SDS011;5279;42.048;24.638;2023-03-01T07:37:53;5.33;;;4.90;;
10463;SDS011;5279;42.048;24.638;2023-03-01T07:40:20;6.00;;;5.03;;
10463;SDS011;5279;42.048;24.638;2023-03-01T07:42:47;5.33;;;4.83;;
10463;SDS011;5279;42.048;24.638;2023-03-01T07:45:14;5.73;;;5.20;;
10463;SDS011;5279;42.048;24.638;2023-03-01T07:47:41;5.50;;;5.10;;
10463;SDS011;5279;42.048;24.638;2023-03-01T07:50:08;5.17;;;4.77;;
10463;SDS011;5279;42.048;24.638;2023-03-01T07:52:37;5.20;;;4.80;;
10463;SDS011;5279;42.048;24.638;2023-03-01T07:55:05;5.93;;;5.00;;
10463;SDS011;5279;42.048;24.638;2023-03-01T07:57:32;5.67;;;5.17;;
10463;SDS011;5279;42.048;24.638;2023-03-01T07:59:59;5.20;;;4.77;;
10463;SDS011;5279;42.048;24.638;2023-03-01T08:02:26;4.63;;;4.23;;
10463;SDS011;5279;42.048;24.638;2023-03-01T08:04:53;4.53;;;4.23;;
10463;SDS011;5279;42.048;24.638;2023-03-01T08:07:20;4.80;;;4.40;;
10463;SDS011;5279;42.048;24.638;2023-03-01T08:09:48;4.77;;;4.37;;
10463;SDS011;5279;42.048;24.638;2023-03-01T08:12:15;6.10;;;4.10;;
10463;SDS011;5279;42.048;24.638;2023-03-01T08:14:42;4.20;;;3.90;;
10463;SDS011;5279;42.048;24.638;2023-03-01T08:17:13;10.40;;;9.30;;
10463;SDS011;5279;42.048;24.638;2023-03-01T08:19:40;5.27;;;4.43;;
10463;SDS011;5279;42.048;24.638;2023-03-01T08:22:07;3.57;;;3.27;;
10463;SDS011;5279;42.048;24.638;2023-03-01T08:24:34;3.20;;;2.90;;
10463;SDS011;5279;42.048;24.638;2023-03-01T08:27:02;3.37;;;3.00;;
10463;SDS011;5279;42.048;24.638;2023-03-01T08:29:30;2.53;;;2.33;;
10463;SDS011;5279;42.048;24.638;2023-03-01T08:31:57;3.47;;;1.73;;
10463;SDS011;5279;42.048;24.638;2023-03-01T08:34:24;2.10;;;2.00;;
10463;SDS011;5279;42.048;24.638;2023-03-01T08:36:51;2.47;;;2.07;;
10463;SDS011;5279;42.048;24.638;2023-03-01T08:39:18;5.67;;;1.80;;
10463;SDS011;5279;42.048;24.638;2023-03-01T08:41:46;2.20;;;2.00;;
10463;SDS011;5279;42.048;24.638;2023-03-01T08:44:15;2.50;;;2.17;;
10463;SDS011;5279;42.048;24.638;2023-03-01T08:46:43;2.70;;;2.50;;
10463;SDS011;5279;42.048;24.638;2023-03-01T08:49:11;2.63;;;2.23;;
10463;SDS011;5279;42.048;24.638;2023-03-01T08:51:38;2.10;;;2.00;;
10463;SDS011;5279;42.048;24.638;2023-03-01T08:54:06;3.40;;;2.43;;
10463;SDS011;5279;42.048;24.638;2023-03-01T08:56:36;3.27;;;2.70;;
10463;SDS011;5279;42.048;24.638;2023-03-01T08:59:03;4.43;;;4.00;;
10463;SDS011;5279;42.048;24.638;2023-03-01T09:01:31;5.50;;;4.50;;
10463;SDS011;5279;42.048;24.638;2023-03-01T09:03:58;9.60;;;6.80;;
10463;SDS011;5279;42.048;24.638;2023-03-01T09:06:25;9.47;;;7.17;;
10463;SDS011;5279;42.048;24.638;2023-03-01T09:08:52;7.60;;;5.50;;
10463;SDS011;5279;42.048;24.638;2023-03-01T09:11:20;5.93;;;4.20;;
10463;SDS011;5279;42.048;24.638;2023-03-01T09:13:48;3.87;;;3.33;;
10463;SDS011;5279;42.048;24.638;2023-03-01T09:16:16;3.70;;;3.03;;
10463;SDS011;5279;42.048;24.638;2023-03-01T09:18:48;3.30;;;2.80;;
10463;SDS011;5279;42.048;24.638;2023-03-01T09:21:16;3.07;;;2.43;;
10463;SDS011;5279;42.048;24.638;2023-03-01T09:23:46;4.83;;;2.67;;
10463;SDS011;5279;42.048;24.638;2023-03-01T09:26:14;2.63;;;2.43;;
10463;SDS011;5279;42.048;24.638;2023-03-01T09:28:44;2.80;;;2.60;;
10463;SDS011;5279;42.048;24.638;2023-03-01T09:31:11;5.57;;;4.67;;
10463;SDS011;5279;42.048;24.638;2023-03-01T09:33:39;4.47;;;3.83;;
10463;SDS011;5279;42.048;24.638;2023-03-01T09:36:11;3.23;;;2.93;;
10463;SDS011;5279;42.048;24.638;2023-03-01T09:38:39;5.23;;;3.47;;
10463;SDS011;5279;42.048;24.638;2023-03-01T09:41:09;5.53;;;3.93;;
10463;SDS011;5279;42.048;24.638;2023-03-01T09:43:40;3.33;;;3.00;;
10463;SDS011;5279;42.048;24.638;2023-03-01T09:46:11;3.17;;;2.97;;
10463;SDS011;5279;42.048;24.638;2023-03-01T09:48:42;4.33;;;3.93;;
10463;SDS011;5279;42.048;24.638;2023-03-01T09:51:14;3.63;;;3.10;;
10463;SDS011;5279;42.048;24.638;2023-03-01T09:53:44;5.83;;;4.37;;
10463;SDS011;5279;42.048;24.638;2023-03-01T09:56:12;4.27;;;3.33;;
10463;SDS011;5279;42.048;24.638;2023-03-01T09:58:47;3.07;;;2.87;;
10463;SDS011;5279;42.048;24.638;2023-03-01T10:01:30;3.43;;;3.13;;
10463;SDS011;5279;42.048;24.638;2023-03-01T10:04:04;3.80;;;3.50;;
10463;SDS011;5279;42.048;24.638;2023-03-01T10:06:44;3.80;;;3.43;;
10463;SDS011;5279;42.048;24.638;2023-03-01T10:09:18;3.40;;;3.10;;
10463;SDS011;5279;42.048;24.638;2023-03-01T10:11:50;4.60;;;3.23;;
10463;SDS011;5279;42.048;24.638;2023-03-01T10:14:23;3.10;;;2.80;;
10463;SDS011;5279;42.048;24.638;2023-03-01T10:16:57;2.87;;;2.57;;
10463;SDS011;5279;42.048;24.638;2023-03-01T10:19:29;2.63;;;2.43;;
10463;SDS011;5279;42.048;24.638;2023-03-01T10:22:02;2.93;;;2.73;;
10463;SDS011;5279;42.048;24.638;2023-03-01T10:24:34;3.13;;;2.93;;
10463;SDS011;5279;42.048;24.638;2023-03-01T10:27:04;3.70;;;3.40;;
10463;SDS011;5279;42.048;24.638;2023-03-01T10:29:37;3.37;;;3.10;;
10463;SDS011;5279;42.048;24.638;2023-03-01T10:32:09;3.47;;;3.17;;
10463;SDS011;5279;42.048;24.638;2023-03-01T10:34:37;2.80;;;2.50;;
10463;SDS011;5279;42.048;24.638;2023-03-01T10:37:10;2.80;;;2.60;;
10463;SDS011;5279;42.048;24.638;2023-03-01T10:39:53;6.27;;;2.67;;
10463;SDS011;5279;42.048;24.638;2023-03-01T10:42:23;5.80;;;2.70;;
10463;SDS011;5279;42.048;24.638;2023-03-01T10:44:53;2.50;;;2.40;;
10463;SDS011;5279;42.048;24.638;2023-03-01T10:47:24;4.93;;;3.30;;
10463;SDS011;5279;42.048;24.638;2023-03-01T10:49:53;3.20;;;2.83;;
10463;SDS011;5279;42.048;24.638;2023-03-01T10:52:27;2.83;;;2.63;;
10463;SDS011;5279;42.048;24.638;2023-03-01T10:54:59;3.30;;;3.00;;
10463;SDS011;5279;42.048;24.638;2023-03-01T10:57:31;3.10;;;2.90;;
10463;SDS011;5279;42.048;24.638;2023-03-01T11:00:23;3.27;;;3.07;;
10463;SDS011;5279;42.048;24.638;2023-03-01T11:03:04;3.43;;;2.63;;
10463;SDS011;5279;42.048;24.638;2023-03-01T11:05:39;3.00;;;2.80;;
10463;SDS011;5279;42.048;24.638;2023-03-01T11:08:30;4.87;;;3.00;;
10463;SDS011;5279;42.048;24.638;2023-03-01T11:11:07;3.20;;;2.90;;
10463;SDS011;5279;42.048;24.638;2023-03-01T11:13:50;3.37;;;3.17;;
10463;SDS011;5279;42.048;24.638;2023-03-01T11:16:23;4.03;;;3.70;;
10463;SDS011;5279;42.048;24.638;2023-03-01T11:21:46;4.73;;;3.20;;
10463;SDS011;5279;42.048;24.638;2023-03-01T11:24:20;3.60;;;2.73;;
10463;SDS011;5279;42.048;24.638;2023-03-01T11:26:57;3.00;;;2.80;;
10463;SDS011;5279;42.048;24.638;2023-03-01T11:29:30;4.03;;;3.23;;
10463;SDS011;5279;42.048;24.638;2023-03-01T11:32:05;3.40;;;3.10;;
10463;SDS011;5279;42.048;24.638;2023-03-01T11:34:41;3.30;;;2.63;;
10463;SDS011;5279;42.048;24.638;2023-03-01T11:37:16;3.03;;;2.83;;
10463;SDS011;5279;42.048;24.638;2023-03-01T11:39:53;2.70;;;2.50;;
10463;SDS011;5279;42.048;24.638;2023-03-01T11:42:27;3.50;;;3.20;;
10463;SDS011;5279;42.048;24.638;2023-03-01T11:45:06;3.23;;;3.00;;
10463;SDS011;5279;42.048;24.638;2023-03-01T11:47:42;3.27;;;2.93;;
10463;SDS011;5279;42.048;24.638;2023-03-01T11:50:25;4.80;;;3.57;;
10463;SDS011;5279;42.048;24.638;2023-03-01T11:53:11;3.10;;;2.90;;
10463;SDS011;5279;42.048;24.638;2023-03-01T11:56:06;3.10;;;2.90;;
10463;SDS011;5279;42.048;24.638;2023-03-01T11:58:51;3.17;;;2.97;;
10463;SDS011;5279;42.048;24.638;2023-03-01T12:01:51;3.43;;;3.13;;
10463;SDS011;5279;42.048;24.638;2023-03-01T12:07:51;3.47;;;3.23;;
10463;SDS011;5279;42.048;24.638;2023-03-01T12:10:26;5.13;;;3.10;;
10463;SDS011;5279;42.048;24.638;2023-03-01T12:13:10;3.07;;;2.87;;
10463;SDS011;5279;42.048;24.638;2023-03-01T12:15:49;3.20;;;3.00;;
10463;SDS011;5279;42.048;24.638;2023-03-01T12:18:37;3.40;;;3.20;;
10463;SDS011;5279;42.048;24.638;2023-03-01T12:21:20;3.80;;;3.50;;
10463;SDS011;5279;42.048;24.638;2023-03-01T12:24:15;3.93;;;3.63;;
10463;SDS011;5279;42.048;24.638;2023-03-01T12:26:54;3.40;;;3.17;;
10463;SDS011;5279;42.048;24.638;2023-03-01T12:29:34;4.07;;;3.67;;
10463;SDS011;5279;42.048;24.638;2023-03-01T12:32:15;3.70;;;3.40;;
10463;SDS011;5279;42.048;24.638;2023-03-01T12:34:55;3.53;;;3.30;;
10463;SDS011;5279;42.048;24.638;2023-03-01T12:37:42;3.90;;;3.60;;
10463;SDS011;5279;42.048;24.638;2023-03-01T12:40:36;4.53;;;4.13;;
10463;SDS011;5279;42.048;24.638;2023-03-01T12:43:21;4.03;;;3.73;;
10463;SDS011;5279;42.048;24.638;2023-03-01T12:46:01;4.23;;;3.83;;
10463;SDS011;5279;42.048;24.638;2023-03-01T12:48:39;4.20;;;3.90;;
10463;SDS011;5279;42.048;24.638;2023-03-01T12:51:14;3.90;;;3.60;;
10463;SDS011;5279;42.048;24.638;2023-03-01T12:53:44;4.27;;;3.87;;
10463;SDS011;5279;42.048;24.638;2023-03-01T12:56:15;4.03;;;3.73;;
10463;SDS011;5279;42.048;24.638;2023-03-01T12:58:48;4.10;;;3.80;;
10463;SDS011;5279;42.048;24.638;2023-03-01T13:01:28;4.50;;;4.03;;
10463;SDS011;5279;42.048;24.638;2023-03-01T13:04:14;3.67;;;3.47;;
10463;SDS011;5279;42.048;24.638;2023-03-01T13:06:50;4.30;;;4.00;;
10463;SDS011;5279;42.048;24.638;2023-03-01T13:09:30;4.30;;;3.90;;
10463;SDS011;5279;42.048;24.638;2023-03-01T13:12:03;4.67;;;4.27;;
10463;SDS011;5279;42.048;24.638;2023-03-01T13:14:52;5.00;;;4.60;;
10463;SDS011;5279;42.048;24.638;2023-03-01T13:17:30;5.63;;;5.23;;
10463;SDS011;5279;42.048;24.638;2023-03-01T13:19:58;5.60;;;5.10;;
10463;SDS011;5279;42.048;24.638;2023-03-01T13:22:26;6.20;;;5.70;;
10463;SDS011;5279;42.048;24.638;2023-03-01T13:27:45;6.63;;;6.03;;
10463;SDS011;5279;42.048;24.638;2023-03-01T13:41:58;6.20;;;5.57;;
10463;SDS011;5279;42.048;24.638;2023-03-01T13:44:29;6.33;;;5.83;;
10463;SDS011;5279;42.048;24.638;2023-03-01T13:47:06;6.13;;;5.53;;
10463;SDS011;5279;42.048;24.638;2023-03-01T13:49:45;6.70;;;6.10;;
10463;SDS011;5279;42.048;24.638;2023-03-01T13:52:30;6.73;;;5.93;;
10463;SDS011;5279;42.048;24.638;2023-03-01T13:55:03;6.20;;;5.60;;
10463;SDS011;5279;42.048;24.638;2023-03-01T13:57:32;6.63;;;6.07;;
10463;SDS011;5279;42.048;24.638;2023-03-01T14:00:03;6.60;;;5.90;;
10463;SDS011;5279;42.048;24.638;2023-03-01T14:02:32;6.23;;;5.73;;
10463;SDS011;5279;42.048;24.638;2023-03-01T14:05:01;6.80;;;6.10;;
10463;SDS011;5279;42.048;24.638;2023-03-01T14:07:28;7.00;;;6.40;;
10463;SDS011;5279;42.048;24.638;2023-03-01T14:09:56;6.43;;;5.93;;
10463;SDS011;5279;42.048;24.638;2023-03-01T14:12:28;7.97;;;6.30;;
10463;SDS011;5279;42.048;24.638;2023-03-01T14:15:06;6.83;;;6.30;;
10463;SDS011;5279;42.048;24.638;2023-03-01T14:17:46;6.47;;;5.97;;
10463;SDS011;5279;42.048;24.638;2023-03-01T14:20:20;6.73;;;6.13;;
10463;SDS011;5279;42.048;24.638;2023-03-01T14:22:49;6.53;;;6.03;;
10463;SDS011;5279;42.048;24.638;2023-03-01T14:25:20;7.00;;;6.30;;
10463;SDS011;5279;42.048;24.638;2023-03-01T14:28:02;7.00;;;6.40;;
10463;SDS011;5279;42.048;24.638;2023-03-01T14:30:31;6.83;;;6.20;;
10463;SDS011;5279;42.048;24.638;2023-03-01T14:33:03;7.87;;;6.20;;
10463;SDS011;5279;42.048;24.638;2023-03-01T14:35:33;6.67;;;6.17;;
10463;SDS011;5279;42.048;24.638;2023-03-01T14:38:02;7.23;;;6.63;;
10463;SDS011;5279;42.048;24.638;2023-03-01T14:40:30;6.23;;;5.73;;
10463;SDS011;5279;42.048;24.638;2023-03-01T14:43:00;6.93;;;5.90;;
10463;SDS011;5279;42.048;24.638;2023-03-01T14:45:35;6.73;;;6.13;;
10463;SDS011;5279;42.048;24.638;2023-03-01T14:48:04;7.00;;;6.30;;
10463;SDS011;5279;42.048;24.638;2023-03-01T14:50:35;6.80;;;6.20;;
10463;SDS011;5279;42.048;24.638;2023-03-01T14:53:07;6.10;;;5.50;;
10463;SDS011;5279;42.048;24.638;2023-03-01T14:55:44;6.30;;;5.80;;
10463;SDS011;5279;42.048;24.638;2023-03-01T14:58:14;6.43;;;5.83;;
10463;SDS011;5279;42.048;24.638;2023-03-01T15:00:47;6.80;;;6.10;;
10463;SDS011;5279;42.048;24.638;2023-03-01T15:03:20;6.97;;;6.37;;
10463;SDS011;5279;42.048;24.638;2023-03-01T15:05:57;7.17;;;6.53;;
10463;SDS011;5279;42.048;24.638;2023-03-01T15:08:26;7.23;;;6.43;;
10463;SDS011;5279;42.048;24.638;2023-03-01T15:11:00;6.80;;;6.20;;
10463;SDS011;5279;42.048;24.638;2023-03-01T15:13:31;7.17;;;6.40;;
10463;SDS011;5279;42.048;24.638;2023-03-01T15:16:09;7.33;;;6.73;;
10463;SDS011;5279;42.048;24.638;2023-03-01T15:18:42;6.40;;;5.87;;
10463;SDS011;5279;42.048;24.638;2023-03-01T15:21:15;6.00;;;5.50;;
10463;SDS011;5279;42.048;24.638;2023-03-01T15:23:48;6.50;;;5.90;;
10463;SDS011;5279;42.048;24.638;2023-03-01T15:26:26;5.47;;;5.07;;
10463;SDS011;5279;42.048;24.638;2023-03-01T15:28:57;5.83;;;5.23;;
10463;SDS011;5279;42.048;24.638;2023-03-01T15:31:26;6.10;;;5.50;;
10463;SDS011;5279;42.048;24.638;2023-03-01T15:34:08;5.73;;;5.27;;